首页
METAR-TAF:

METAR-TAF

机场 :

尼诺伊·阿基诺国际机场

马尼拉, 菲律宾

纬度: 14-31N, 经度: 121-00E, 海拔: 14米

当前天气观测

该预报发布于53分钟前的12:00 UTC
风速9节,风向西转西南,在西南西之间变化
温度 30°C
湿度 84%
气压 1007 hPa
能见度10公里或以上
少量云层高于2500英尺

METAR: RPLL 271200Z 25009KT 220V280 9999 FEW025 30/27 Q1007 NOSIG RMK A2974

时间: 20:53 (12:53 UTC)

预报

该预报发布于1小时和53分钟前的11:00 UTC
预报有效从27日的 12点(UTC)到 28日的 18点(UTC)
风速12节,风向西
能见度10公里或以上
散云层高于2500英尺
多云层高于10000英尺
短暂存在
从 27日的 17点(UTC)到 27日的 21点(UTC)
风速7节,风向西转西南
少量云层高于2200英尺, 积雨云.
散云层高于2300英尺
阴天层高于9000英尺
小阵雨
短暂存在
从 28日的 03点(UTC)到 28日的 09点(UTC)
风速17节,风向西转西南
散云层高于2200英尺, 积雨云.
阴天层高于9000英尺
小阵雨,

TAF: RPLL 271100Z 2712/2818 26012KT 9999 SCT025 BKN100 TX33/2806Z TN28/2721Z TEMPO 2717/2721 25007KT -SHRA FEW022CB SCT023 OVC090 TEMPO 2803/2809 25017KT -SHRA SCT022CB OVC090

超过4000个机场的气象观测和天气预报(METAR&TAF报告)。

可查询的气象台以黄色和红色小点在地图上表示。

将鼠标移到小点上方,可查看气象台名称。

然后点击查看天气观测和预报。

如需切换地图:点击带黑十字的绿色按钮放大地图;点击带横线的绿色按钮缩小地图;或者点击绿色箭头查看邻近地区的地图。


METAR-TAF: